createdAt,value
2022-09-23T00:01:04.772Z,77071.31
2022-09-23T00:03:42.000Z,77073.34
2022-09-23T00:06:12.444Z,77069.28
2022-09-23T00:08:40.515Z,77075.38
2022-09-23T00:11:10.416Z,77069.28
2022-09-23T00:13:39.592Z,77069.28
2022-09-23T00:16:11.063Z,77067.28
2022-09-23T00:18:38.129Z,77075.38
2022-09-23T00:21:06.423Z,77067.28
2022-09-23T00:23:33.440Z,77063.22
2022-09-23T00:26:02.665Z,77065.25
2022-09-23T00:28:30.853Z,77067.28
2022-09-23T00:31:03.166Z,77063.22
2022-09-23T00:33:30.247Z,77071.31
2022-09-23T00:36:02.005Z,77071.31
2022-09-23T00:38:29.580Z,77075.38
2022-09-23T00:40:56.571Z,77071.31
2022-09-23T00:43:45.092Z,77067.28
2022-09-23T00:46:16.925Z,77071.31
2022-09-23T00:48:44.496Z,77079.44
2022-09-23T00:51:17.958Z,77079.44
2022-09-23T00:53:48.539Z,77079.44
2022-09-23T00:56:15.819Z,77079.44
2022-09-23T00:58:45.326Z,77079.44
2022-09-23T01:01:14.483Z,77081.47
2022-09-23T01:03:45.680Z,77083.50
2022-09-23T01:06:13.634Z,77081.47
2022-09-23T01:08:44.368Z,77075.38
2022-09-23T01:11:42.044Z,77071.31
2022-09-23T01:14:09.067Z,77069.28
2022-09-23T01:16:58.846Z,77059.16
2022-09-23T01:19:28.831Z,77067.28
2022-09-23T01:22:22.202Z,77063.22
2022-09-23T01:25:13.794Z,77063.22
2022-09-23T01:27:43.362Z,77067.28
2022-09-23T01:30:31.588Z,77063.22
2022-09-23T01:33:04.598Z,77063.22
2022-09-23T01:35:43.097Z,77067.28
2022-09-23T01:38:24.924Z,77071.31
2022-09-23T01:40:54.825Z,77065.25
2022-09-23T01:43:28.483Z,77075.38
2022-09-23T01:45:59.883Z,77079.44
2022-09-23T01:48:39.021Z,77079.44
2022-09-23T01:51:13.972Z,77083.50
2022-09-23T01:54:13.247Z,77091.59
2022-09-23T01:56:51.863Z,77097.69
2022-09-23T01:59:26.620Z,77107.81
2022-09-23T02:02:08.886Z,77099.72
2022-09-23T02:04:47.249Z,77101.72
2022-09-23T02:07:20.850Z,77099.72
2022-09-23T02:10:14.001Z,77099.72
2022-09-23T02:12:46.936Z,77103.75
2022-09-23T02:15:18.324Z,77107.81
2022-09-23T02:17:52.149Z,77111.88
2022-09-23T02:20:32.960Z,77109.84
2022-09-23T02:23:07.694Z,77115.94
2022-09-23T02:25:57.186Z,77124.03
2022-09-23T02:28:41.950Z,77128.09
2022-09-23T02:31:13.122Z,77136.19
2022-09-23T02:33:46.263Z,77138.22
2022-09-23T02:36:26.094Z,77142.28
2022-09-23T02:38:57.996Z,77142.28
2022-09-23T02:41:37.259Z,77148.38
2022-09-23T02:44:14.777Z,77148.38
2022-09-23T02:46:43.672Z,77156.47
2022-09-23T02:49:24.008Z,77156.47
2022-09-23T02:51:51.438Z,77164.59
2022-09-23T02:54:22.928Z,77162.56
2022-09-23T02:56:49.788Z,77178.78
2022-09-23T02:59:19.568Z,77168.63
2022-09-23T03:02:14.304Z,77168.63
2022-09-23T03:04:59.723Z,77160.53
2022-09-23T03:08:04.409Z,77158.50
2022-09-23T03:10:53.066Z,77152.41
2022-09-23T03:13:31.483Z,77152.41
2022-09-23T03:16:22.797Z,77144.31
2022-09-23T03:19:27.520Z,77136.19
2022-09-23T03:22:35.473Z,77140.25
2022-09-23T03:25:08.333Z,77136.19
2022-09-23T03:27:36.540Z,77136.19
2022-09-23T03:30:06.883Z,77136.19
2022-09-23T03:32:34.991Z,77140.25
2022-09-23T03:35:04.230Z,77152.41
2022-09-23T03:37:49.417Z,77164.59
2022-09-23T03:40:42.082Z,77152.41
2022-09-23T03:43:11.855Z,77156.47
2022-09-23T03:45:38.840Z,77154.44
2022-09-23T03:48:07.205Z,77158.50
2022-09-23T03:50:35.793Z,77160.53
2022-09-23T03:53:02.588Z,77160.53
2022-09-23T03:55:29.489Z,77162.56
2022-09-23T03:57:57.020Z,77168.63
2022-09-23T04:00:23.871Z,77168.63
2022-09-23T04:02:50.743Z,77172.69
2022-09-23T04:05:18.235Z,77172.69
2022-09-23T04:07:45.276Z,77172.69
2022-09-23T04:10:12.225Z,77172.69
2022-09-23T04:12:39.502Z,77176.75
2022-09-23T04:15:07.032Z,77188.91
2022-09-23T04:17:34.228Z,77184.84
2022-09-23T04:20:01.507Z,77186.88
2022-09-23T04:22:28.493Z,77190.94
2022-09-23T04:24:55.295Z,77195.00
2022-09-23T04:27:22.440Z,77201.06
2022-09-23T04:29:49.279Z,77205.13
2022-09-23T04:32:16.129Z,77209.19
2022-09-23T04:34:43.342Z,77213.25
2022-09-23T04:37:10.159Z,77213.25
2022-09-23T04:39:36.963Z,77219.31
2022-09-23T04:42:04.323Z,77225.41
2022-09-23T04:44:31.406Z,77221.34
2022-09-23T04:46:58.594Z,77225.41
2022-09-23T04:49:26.249Z,77233.53
2022-09-23T04:51:54.321Z,77229.47
2022-09-23T04:54:21.089Z,77229.47
2022-09-23T04:56:48.066Z,77229.47
2022-09-23T04:59:15.116Z,77225.41
2022-09-23T05:01:42.026Z,77225.41
2022-09-23T05:04:13.856Z,77227.44
2022-09-23T05:06:40.851Z,77229.47
2022-09-23T05:09:08.912Z,77235.53
2022-09-23T05:11:36.459Z,77229.47
2022-09-23T05:14:03.384Z,77225.41
2022-09-23T05:16:30.323Z,77229.47
2022-09-23T05:18:58.097Z,77225.41
2022-09-23T05:21:29.186Z,77225.41
2022-09-23T05:23:59.091Z,77229.47
2022-09-23T05:26:31.640Z,77231.50
2022-09-23T05:28:59.785Z,77225.41
2022-09-23T05:31:28.792Z,77221.34
2022-09-23T05:34:00.941Z,77217.28
2022-09-23T05:36:32.127Z,77211.22
2022-09-23T05:39:03.718Z,77209.19
2022-09-23T05:41:30.912Z,77207.16
2022-09-23T05:43:59.701Z,77205.13
2022-09-23T05:46:29.531Z,77201.06
2022-09-23T05:49:02.139Z,77197.03
2022-09-23T05:51:32.692Z,77192.97
2022-09-23T05:54:02.932Z,77188.91
2022-09-23T05:56:31.453Z,77172.69
2022-09-23T05:59:00.381Z,77156.47
2022-09-23T06:01:32.262Z,77146.34
2022-09-23T06:04:00.617Z,77124.03
2022-09-23T06:06:33.455Z,77115.94
2022-09-23T06:09:01.030Z,77103.75
2022-09-23T06:11:32.766Z,77107.81
2022-09-23T06:14:01.176Z,77103.75
2022-09-23T06:16:33.457Z,77101.72
2022-09-23T06:19:05.824Z,77095.66
2022-09-23T06:21:36.555Z,77091.59
2022-09-23T06:24:04.979Z,77091.59
2022-09-23T06:26:35.249Z,77079.44
2022-09-23T06:29:04.590Z,77067.28
2022-09-23T06:31:32.977Z,77063.22
2022-09-23T06:34:09.515Z,77051.06
2022-09-23T06:36:45.776Z,77030.78
2022-09-23T06:39:16.802Z,77030.78
2022-09-23T06:41:45.242Z,77018.63
2022-09-23T06:44:15.624Z,77014.56
2022-09-23T06:46:42.829Z,77010.50
2022-09-23T06:49:12.205Z,77006.44
2022-09-23T06:51:39.232Z,76998.34
2022-09-23T06:54:06.282Z,77000.38
2022-09-23T06:56:38.503Z,76992.25
2022-09-23T06:59:09.515Z,76982.13
2022-09-23T07:01:36.694Z,76984.16
2022-09-23T07:04:03.827Z,76982.13
2022-09-23T07:06:30.752Z,76974.00
2022-09-23T07:08:57.719Z,76974.00
2022-09-23T07:11:24.548Z,76982.13
2022-09-23T07:13:51.343Z,76965.91
2022-09-23T07:16:18.481Z,76957.78
2022-09-23T07:18:45.884Z,76937.53
2022-09-23T07:21:15.974Z,76929.41
2022-09-23T07:23:46.009Z,76921.31
2022-09-23T07:26:14.484Z,76909.13
2022-09-23T07:28:41.314Z,76901.03
2022-09-23T07:31:14.879Z,76890.88
2022-09-23T07:33:44.214Z,76880.75
2022-09-23T07:36:14.978Z,76872.66
2022-09-23T07:38:45.459Z,76862.50
2022-09-23T07:41:17.312Z,76852.38
2022-09-23T07:43:47.952Z,76852.38
2022-09-23T07:46:17.696Z,76840.22
2022-09-23T07:48:46.040Z,76813.84
2022-09-23T07:51:18.202Z,76803.72
2022-09-23T07:53:48.379Z,76801.69
2022-09-23T07:56:16.431Z,76785.47
2022-09-23T07:58:43.396Z,76771.28
2022-09-23T08:01:12.096Z,76767.22
2022-09-23T08:03:39.881Z,76748.97
2022-09-23T08:06:10.529Z,76746.97
2022-09-23T08:08:40.482Z,76734.78
2022-09-23T08:11:10.377Z,76730.75
2022-09-23T08:13:37.992Z,76726.69
2022-09-23T08:16:05.544Z,76730.75
2022-09-23T08:18:34.054Z,76726.69
2022-09-23T08:21:01.079Z,76718.56
2022-09-23T08:23:33.336Z,76706.41
2022-09-23T08:26:09.855Z,76708.44
2022-09-23T08:28:44.356Z,76706.41
2022-09-23T08:31:14.155Z,76686.13
2022-09-23T08:33:41.309Z,76690.19
2022-09-23T08:36:08.804Z,76686.13
2022-09-23T08:38:35.925Z,76678.03
2022-09-23T08:41:16.236Z,76673.97
2022-09-23T08:43:48.782Z,76673.97
2022-09-23T08:46:24.906Z,76669.94
2022-09-23T08:48:52.748Z,76665.88
2022-09-23T08:51:26.377Z,76673.97
2022-09-23T08:53:53.363Z,76665.88
2022-09-23T08:56:23.319Z,76653.72
2022-09-23T08:59:07.515Z,76643.56
2022-09-23T09:01:49.338Z,76629.38
2022-09-23T09:04:35.285Z,76621.28
2022-09-23T09:07:38.130Z,76623.31
2022-09-23T09:10:05.322Z,76629.38
2022-09-23T09:12:49.304Z,76613.16
2022-09-23T09:15:24.666Z,76621.28
2022-09-23T09:18:07.800Z,76596.94
2022-09-23T09:20:57.167Z,76605.06
2022-09-23T09:23:38.838Z,76588.84
2022-09-23T09:26:06.619Z,76560.47
2022-09-23T09:28:49.158Z,76526.00
2022-09-23T09:31:22.704Z,76487.50
2022-09-23T09:33:58.010Z,76487.50
2022-09-23T09:36:36.686Z,76487.50
2022-09-23T09:39:04.517Z,76481.41
2022-09-23T09:41:31.540Z,76491.53
2022-09-23T09:44:03.472Z,76489.50
2022-09-23T09:46:49.121Z,76483.44
2022-09-23T09:49:39.551Z,76487.50
2022-09-23T09:52:20.244Z,76501.69
2022-09-23T09:54:49.308Z,76499.66
2022-09-23T09:57:33.646Z,76487.50
2022-09-23T10:00:26.451Z,76463.16
2022-09-23T10:02:56.184Z,76430.72
2022-09-23T10:05:56.730Z,76412.47
2022-09-23T10:08:35.594Z,76410.47
2022-09-23T10:11:08.334Z,76394.25
2022-09-23T10:13:36.263Z,76386.13
2022-09-23T10:16:04.206Z,76398.28
2022-09-23T10:18:33.742Z,76386.13
2022-09-23T10:21:15.604Z,76388.16
2022-09-23T10:23:44.506Z,76392.22
2022-09-23T10:26:13.017Z,76378.03
2022-09-23T10:28:50.308Z,76382.09
2022-09-23T10:31:26.617Z,76378.03
2022-09-23T10:33:57.409Z,76394.25
2022-09-23T10:36:24.910Z,76390.19
2022-09-23T10:39:19.880Z,76390.19
2022-09-23T10:42:22.457Z,76369.91
2022-09-23T10:45:20.074Z,76347.63
2022-09-23T10:47:59.601Z,76331.41
2022-09-23T10:50:39.636Z,76319.25
2022-09-23T10:53:42.019Z,76321.28
2022-09-23T10:56:26.851Z,76317.22
2022-09-23T10:59:31.544Z,76292.91
2022-09-23T11:02:31.307Z,76296.94
2022-09-23T11:05:25.966Z,76313.16
2022-09-23T11:08:02.330Z,76311.13
2022-09-23T11:10:49.836Z,76309.13
2022-09-23T11:13:30.520Z,76296.94
2022-09-23T11:16:29.290Z,76284.78
2022-09-23T11:19:33.779Z,76268.56
2022-09-23T11:22:22.835Z,76232.09
2022-09-23T11:25:12.003Z,76213.84
2022-09-23T11:27:44.828Z,76175.34
2022-09-23T11:30:22.873Z,76159.13
2022-09-23T11:33:19.559Z,76146.97
2022-09-23T11:35:59.073Z,76142.91
2022-09-23T11:38:35.891Z,76126.69
2022-09-23T11:41:17.576Z,76126.69
2022-09-23T11:43:51.508Z,76146.97
2022-09-23T11:46:29.066Z,76171.28
2022-09-23T11:49:03.429Z,76191.56
2022-09-23T11:51:37.529Z,76207.78
2022-09-23T11:54:11.329Z,76207.78
2022-09-23T11:56:48.698Z,76183.44
2022-09-23T11:59:23.949Z,76179.38
2022-09-23T12:02:12.332Z,76159.13
2022-09-23T12:04:57.484Z,76132.78
2022-09-23T12:07:34.595Z,76108.44
2022-09-23T12:10:08.129Z,76130.75
2022-09-23T12:12:47.998Z,76153.03
2022-09-23T12:15:21.302Z,76173.31
2022-09-23T12:17:54.582Z,76171.28
2022-09-23T12:20:36.517Z,76175.34
2022-09-23T12:23:21.604Z,76203.72
2022-09-23T12:25:54.284Z,76221.94
2022-09-23T12:28:28.335Z,76228.03
2022-09-23T12:30:58.978Z,76240.19
2022-09-23T12:33:29.944Z,76248.31
2022-09-23T12:36:12.296Z,76248.31
2022-09-23T12:38:58.260Z,76254.38
2022-09-23T12:41:43.054Z,76228.03
2022-09-23T12:44:13.612Z,76219.94
2022-09-23T12:46:45.700Z,76203.72
2022-09-23T12:49:29.087Z,76171.28
2022-09-23T12:52:17.924Z,76159.13
2022-09-23T12:54:50.312Z,76142.91
2022-09-23T12:57:35.476Z,76134.78
2022-09-23T13:00:12.889Z,76110.47
2022-09-23T13:02:47.103Z,76078.06
2022-09-23T13:05:47.312Z,76061.84
2022-09-23T13:08:24.880Z,76041.56
2022-09-23T13:11:01.681Z,76037.50
2022-09-23T13:13:36.024Z,76049.69
2022-09-23T13:16:35.280Z,76041.56
2022-09-23T13:19:27.154Z,76013.19
2022-09-23T13:21:54.082Z,76025.34
2022-09-23T13:24:21.068Z,76023.31
2022-09-23T13:27:33.858Z,76033.47
2022-09-23T13:30:25.150Z,76047.66
2022-09-23T13:33:12.794Z,76053.72
2022-09-23T13:35:44.509Z,76057.78
2022-09-23T13:38:18.518Z,76065.88
2022-09-23T13:40:46.469Z,76086.16
2022-09-23T13:43:27.403Z,76098.31
2022-09-23T13:45:55.244Z,76102.38
2022-09-23T13:48:24.561Z,76110.47
2022-09-23T13:50:53.486Z,76102.38
2022-09-23T13:53:31.841Z,76092.25
2022-09-23T13:56:14.409Z,76080.06
2022-09-23T13:58:43.633Z,76082.09
2022-09-23T14:01:24.209Z,76094.25
2022-09-23T14:03:51.668Z,76106.41
2022-09-23T14:06:19.162Z,76118.59
2022-09-23T14:08:49.837Z,76120.63
2022-09-23T14:11:29.612Z,76118.59
2022-09-23T14:13:58.604Z,76112.50
2022-09-23T14:16:28.265Z,76092.25
2022-09-23T14:19:00.359Z,76078.06
2022-09-23T14:21:36.757Z,76059.81
2022-09-23T14:24:10.645Z,76065.88
2022-09-23T14:26:39.528Z,76053.72
2022-09-23T14:29:15.603Z,76041.56
2022-09-23T14:31:57.153Z,76029.41
2022-09-23T14:34:54.835Z,76041.56
2022-09-23T14:37:44.955Z,76053.72
2022-09-23T14:40:22.047Z,76057.78
2022-09-23T14:43:11.242Z,76057.78
2022-09-23T14:45:40.256Z,76069.94
2022-09-23T14:48:14.434Z,76078.06
2022-09-23T14:50:49.283Z,76086.16
2022-09-23T14:53:22.636Z,76082.09
2022-09-23T14:56:17.146Z,76076.03
2022-09-23T14:58:55.154Z,76082.09
2022-09-23T15:01:35.096Z,76090.22
2022-09-23T15:04:30.942Z,76092.25
2022-09-23T15:07:16.781Z,76118.59
2022-09-23T15:09:45.408Z,76096.28
2022-09-23T15:12:15.942Z,76094.25
2022-09-23T15:14:49.691Z,76094.25
2022-09-23T15:17:22.582Z,76100.34
2022-09-23T15:20:15.661Z,76114.53
2022-09-23T15:22:48.386Z,76122.63
2022-09-23T15:25:21.394Z,76122.63
2022-09-23T15:28:04.298Z,76114.53
2022-09-23T15:30:32.073Z,76110.47
2022-09-23T15:32:59.873Z,76120.63
2022-09-23T15:35:26.958Z,76122.63
2022-09-23T15:37:58.915Z,76128.72
2022-09-23T15:40:36.786Z,76144.94
2022-09-23T15:43:21.019Z,76155.06
2022-09-23T15:45:50.428Z,76169.25
2022-09-23T15:48:22.782Z,76173.31
2022-09-23T15:50:50.951Z,76191.56
2022-09-23T15:53:24.615Z,76207.78
2022-09-23T15:55:52.227Z,76219.94
2022-09-23T15:58:20.663Z,76221.94
2022-09-23T16:00:55.881Z,76228.03
2022-09-23T16:03:31.076Z,76236.16
2022-09-23T16:06:03.077Z,76236.16
2022-09-23T16:08:32.926Z,76236.16
2022-09-23T16:11:00.387Z,76244.25
2022-09-23T16:13:27.482Z,76248.31
2022-09-23T16:15:54.488Z,76256.41
2022-09-23T16:18:21.348Z,76256.41
2022-09-23T16:20:50.275Z,76264.53
2022-09-23T16:23:40.978Z,76272.63
2022-09-23T16:26:17.269Z,76288.84
2022-09-23T16:28:45.849Z,76292.91
2022-09-23T16:31:17.076Z,76307.09
2022-09-23T16:33:45.674Z,76319.25
2022-09-23T16:36:33.886Z,76325.31
2022-09-23T16:39:04.082Z,76333.44
2022-09-23T16:41:32.186Z,76337.50
2022-09-23T16:44:01.115Z,76333.44
2022-09-23T16:46:29.378Z,76345.59
2022-09-23T16:48:57.690Z,76349.66
2022-09-23T16:51:27.701Z,76365.88
2022-09-23T16:53:57.243Z,76373.97
2022-09-23T16:56:28.909Z,76382.09
2022-09-23T16:58:57.134Z,76386.13
2022-09-23T17:01:45.580Z,76394.25
2022-09-23T17:04:16.888Z,76410.47
2022-09-23T17:06:50.217Z,76410.47
2022-09-23T17:09:19.923Z,76422.63
2022-09-23T17:11:57.850Z,76438.84
2022-09-23T17:14:24.959Z,76444.91
2022-09-23T17:16:51.877Z,76455.06
2022-09-23T17:19:18.758Z,76463.16
2022-09-23T17:21:45.775Z,76479.38
2022-09-23T17:24:12.707Z,76481.41
2022-09-23T17:26:39.600Z,76491.53
2022-09-23T17:29:07.510Z,76499.66
2022-09-23T17:31:34.693Z,76495.59
2022-09-23T17:34:01.683Z,76503.69
2022-09-23T17:36:28.747Z,76491.53
2022-09-23T17:38:55.949Z,76489.50
2022-09-23T17:41:22.822Z,76483.44
2022-09-23T17:43:57.154Z,76475.31
2022-09-23T17:46:24.222Z,76471.28
2022-09-23T17:48:58.291Z,76469.25
2022-09-23T17:51:25.710Z,76463.16
2022-09-23T17:53:52.616Z,76451.00
2022-09-23T17:56:25.162Z,76446.94
2022-09-23T17:58:53.954Z,76436.81
2022-09-23T18:01:26.085Z,76428.69
2022-09-23T18:04:05.642Z,76430.72
2022-09-23T18:06:38.429Z,76430.72
2022-09-23T18:09:08.547Z,76426.69
2022-09-23T18:11:38.586Z,76422.63
2022-09-23T18:14:18.501Z,76420.59
2022-09-23T18:16:48.785Z,76418.56
2022-09-23T18:19:21.260Z,76418.56
2022-09-23T18:21:54.600Z,76414.50
2022-09-23T18:24:37.698Z,76418.56
2022-09-23T18:27:06.461Z,76410.47
2022-09-23T18:29:34.371Z,76410.47
2022-09-23T18:32:01.901Z,76408.44
2022-09-23T18:34:31.138Z,76412.47
2022-09-23T18:36:57.981Z,76410.47
2022-09-23T18:39:25.036Z,76412.47
2022-09-23T18:41:52.155Z,76406.41
2022-09-23T18:44:20.133Z,76410.47
2022-09-23T18:46:47.002Z,76406.41
2022-09-23T18:49:32.432Z,76410.47
2022-09-23T18:51:59.427Z,76410.47
2022-09-23T18:54:28.585Z,76410.47
2022-09-23T18:56:55.783Z,76404.38
2022-09-23T18:59:27.897Z,76394.25
2022-09-23T19:01:57.610Z,76386.13
2022-09-23T19:04:26.870Z,76386.13
2022-09-23T19:06:56.815Z,76386.13
2022-09-23T19:09:24.621Z,76386.13
2022-09-23T19:11:52.564Z,76384.09
2022-09-23T19:14:20.010Z,76394.25
2022-09-23T19:16:51.007Z,76394.25
2022-09-23T19:19:17.989Z,76406.41
2022-09-23T19:21:45.032Z,76402.34
2022-09-23T19:24:16.268Z,76402.34
2022-09-23T19:26:44.340Z,76402.34
2022-09-23T19:29:16.695Z,76402.34
2022-09-23T19:31:45.211Z,76402.34
2022-09-23T19:34:17.728Z,76402.34
2022-09-23T19:36:47.206Z,76406.41
2022-09-23T19:39:17.542Z,76406.41
2022-09-23T19:41:45.066Z,76416.53
2022-09-23T19:44:12.291Z,76414.50
2022-09-23T19:46:42.851Z,76414.50
2022-09-23T19:49:11.415Z,76418.56
2022-09-23T19:51:39.390Z,76418.56
2022-09-23T19:54:07.820Z,76418.56
2022-09-23T19:56:35.989Z,76414.50
2022-09-23T19:59:04.522Z,76414.50
2022-09-23T20:01:32.279Z,76418.56
2022-09-23T20:04:00.217Z,76420.59
2022-09-23T20:06:32.416Z,76422.63
2022-09-23T20:09:00.912Z,76426.69
2022-09-23T20:11:29.164Z,76426.69
2022-09-23T20:14:01.789Z,76422.63
2022-09-23T20:16:35.786Z,76418.56
2022-09-23T20:19:04.394Z,76426.69
2022-09-23T20:21:33.589Z,76434.78
2022-09-23T20:24:01.458Z,76430.72
2022-09-23T20:26:47.380Z,76438.84
2022-09-23T20:29:14.849Z,76438.84
2022-09-23T20:31:41.882Z,76444.91
2022-09-23T20:34:10.796Z,76446.94
2022-09-23T20:36:41.304Z,76451.00
2022-09-23T20:39:10.211Z,76461.13
2022-09-23T20:41:39.362Z,76473.28
2022-09-23T20:44:10.434Z,76483.44
2022-09-23T20:46:38.883Z,76495.59
2022-09-23T20:49:08.103Z,76511.81
2022-09-23T20:51:36.342Z,76523.97
2022-09-23T20:54:04.175Z,76540.19
2022-09-23T20:56:31.361Z,76552.34
2022-09-23T20:59:03.701Z,76568.56
2022-09-23T21:01:35.231Z,76590.88
2022-09-23T21:04:05.762Z,76596.94
2022-09-23T21:06:35.291Z,76601.00
2022-09-23T21:09:03.315Z,76605.06
2022-09-23T21:11:31.191Z,76615.19
2022-09-23T21:13:59.174Z,76621.28
2022-09-23T21:16:26.030Z,76625.31
2022-09-23T21:18:53.480Z,76641.53
2022-09-23T21:21:22.292Z,76653.72
2022-09-23T21:23:50.303Z,76653.72
2022-09-23T21:26:20.159Z,76661.81
2022-09-23T21:28:49.198Z,76661.81
2022-09-23T21:31:25.404Z,76665.88
2022-09-23T21:33:54.103Z,76682.09
2022-09-23T21:36:21.661Z,76684.13
2022-09-23T21:38:48.472Z,76694.25
2022-09-23T21:41:15.538Z,76694.25
2022-09-23T21:43:42.390Z,76690.19
2022-09-23T21:46:11.861Z,76688.16
2022-09-23T21:48:41.157Z,76682.09
2022-09-23T21:51:12.938Z,76686.13
2022-09-23T21:53:41.187Z,76690.19
2022-09-23T21:56:09.524Z,76702.34
2022-09-23T21:58:38.719Z,76706.41
2022-09-23T22:01:17.904Z,76702.34
2022-09-23T22:03:50.886Z,76722.63
2022-09-23T22:06:21.629Z,76726.69
2022-09-23T22:08:51.232Z,76726.69
2022-09-23T22:11:40.110Z,76734.78
2022-09-23T22:14:10.569Z,76738.84
2022-09-23T22:16:37.407Z,76748.97
2022-09-23T22:19:07.388Z,76751.00
2022-09-23T22:21:38.112Z,76765.19
2022-09-23T22:24:07.427Z,76769.25
2022-09-23T22:26:37.204Z,76775.34
2022-09-23T22:29:24.632Z,76783.44
2022-09-23T22:32:10.346Z,76787.50
2022-09-23T22:34:49.672Z,76789.53
2022-09-23T22:37:20.474Z,76783.44
2022-09-23T22:39:47.479Z,76791.56
2022-09-23T22:42:14.513Z,76791.56
2022-09-23T22:44:42.026Z,76801.69
2022-09-23T22:47:10.240Z,76815.88
2022-09-23T22:49:37.299Z,76819.94
2022-09-23T22:52:08.408Z,76824.00
2022-09-23T22:54:35.618Z,76828.03
2022-09-23T22:57:07.028Z,76826.00
2022-09-23T22:59:34.843Z,76824.00
2022-09-23T23:02:02.861Z,76824.00
2022-09-23T23:04:30.354Z,76826.00
2022-09-23T23:06:58.906Z,76832.09
2022-09-23T23:09:26.044Z,76840.22
2022-09-23T23:11:52.997Z,76846.28
2022-09-23T23:14:19.881Z,76848.31
2022-09-23T23:16:47.709Z,76848.31
2022-09-23T23:19:17.227Z,76848.31
2022-09-23T23:21:45.491Z,76852.38
2022-09-23T23:24:23.609Z,76860.47
2022-09-23T23:26:52.315Z,76862.50
2022-09-23T23:29:20.907Z,76868.59
2022-09-23T23:31:48.626Z,76866.56
2022-09-23T23:34:21.271Z,76864.53
2022-09-23T23:37:06.834Z,76860.47
2022-09-23T23:39:33.866Z,76854.41
2022-09-23T23:42:00.857Z,76854.41
2022-09-23T23:44:27.727Z,76860.47
2022-09-23T23:46:54.943Z,76864.53
2022-09-23T23:49:22.957Z,76872.66
2022-09-23T23:51:49.769Z,76888.88
2022-09-23T23:54:17.003Z,76894.94
2022-09-23T23:56:44.386Z,76905.09
2022-09-23T23:59:11.575Z,76909.13
